sensor_id;sensor_type;location;lat;lon;timestamp;pressure;altitude;pressure_sealevel;temperature;humidity
8366;BME280;4220;42.502;24.188;2023-07-30T00:00:11;95133.19;;;20.60;73.87
8366;BME280;4220;42.502;24.188;2023-07-30T00:02:38;95120.69;;;20.40;74.64
8366;BME280;4220;42.502;24.188;2023-07-30T00:05:05;95128.53;;;20.42;74.44
8366;BME280;4220;42.502;24.188;2023-07-30T00:07:32;95096.38;;;20.11;75.48
8366;BME280;4220;42.502;24.188;2023-07-30T00:09:59;95123.75;;;20.29;75.44
8366;BME280;4220;42.502;24.188;2023-07-30T00:12:26;95127.56;;;20.23;75.76
8366;BME280;4220;42.502;24.188;2023-07-30T00:14:54;95121.09;;;20.24;75.72
8366;BME280;4220;42.502;24.188;2023-07-30T00:17:21;95107.69;;;20.13;75.47
8366;BME280;4220;42.502;24.188;2023-07-30T00:19:47;95102.91;;;20.00;75.73
8366;BME280;4220;42.502;24.188;2023-07-30T00:22:14;95121.63;;;20.20;75.51
8366;BME280;4220;42.502;24.188;2023-07-30T00:24:41;95126.66;;;20.37;74.81
8366;BME280;4220;42.502;24.188;2023-07-30T00:27:08;95117.16;;;20.45;74.36
8366;BME280;4220;42.502;24.188;2023-07-30T00:29:35;95119.53;;;20.51;74.14
8366;BME280;4220;42.502;24.188;2023-07-30T00:32:03;95105.94;;;20.33;74.62
8366;BME280;4220;42.502;24.188;2023-07-30T00:34:30;95117.00;;;20.31;75.04
8366;BME280;4220;42.502;24.188;2023-07-30T00:36:57;95075.41;;;20.08;75.01
8366;BME280;4220;42.502;24.188;2023-07-30T00:39:24;95094.34;;;19.93;77.08
8366;BME280;4220;42.502;24.188;2023-07-30T00:41:51;95098.16;;;19.87;77.95
8366;BME280;4220;42.502;24.188;2023-07-30T00:44:18;95113.16;;;19.98;77.88
8366;BME280;4220;42.502;24.188;2023-07-30T00:46:45;95111.72;;;20.11;77.24
8366;BME280;4220;42.502;24.188;2023-07-30T00:49:13;95103.69;;;20.06;76.84
8366;BME280;4220;42.502;24.188;2023-07-30T00:51:41;95107.56;;;19.90;78.44
8366;BME280;4220;42.502;24.188;2023-07-30T00:54:08;95104.47;;;20.11;77.55
8366;BME280;4220;42.502;24.188;2023-07-30T00:56:36;95103.72;;;20.01;77.44
8366;BME280;4220;42.502;24.188;2023-07-30T00:59:03;95110.97;;;20.05;77.64
8366;BME280;4220;42.502;24.188;2023-07-30T01:01:33;95092.63;;;20.07;76.75
8366;BME280;4220;42.502;24.188;2023-07-30T01:04:02;95093.25;;;19.99;76.99
8366;BME280;4220;42.502;24.188;2023-07-30T01:06:31;95104.72;;;19.71;78.59
8366;BME280;4220;42.502;24.188;2023-07-30T01:08:58;95088.03;;;19.69;78.54
8366;BME280;4220;42.502;24.188;2023-07-30T01:11:26;95105.31;;;19.63;79.32
8366;BME280;4220;42.502;24.188;2023-07-30T01:13:54;95104.78;;;19.56;80.00
8366;BME280;4220;42.502;24.188;2023-07-30T01:16:21;95098.81;;;19.69;79.45
8366;BME280;4220;42.502;24.188;2023-07-30T01:18:48;95080.53;;;19.66;79.00
8366;BME280;4220;42.502;24.188;2023-07-30T01:21:16;95066.88;;;19.58;78.96
8366;BME280;4220;42.502;24.188;2023-07-30T01:23:43;95092.31;;;19.75;78.87
8366;BME280;4220;42.502;24.188;2023-07-30T01:26:12;95100.59;;;19.84;78.68
8366;BME280;4220;42.502;24.188;2023-07-30T01:28:43;95107.59;;;19.85;78.91
8366;BME280;4220;42.502;24.188;2023-07-30T01:31:14;95104.88;;;19.90;78.51
8366;BME280;4220;42.502;24.188;2023-07-30T01:33:43;95096.06;;;19.79;78.25
8366;BME280;4220;42.502;24.188;2023-07-30T01:36:15;95099.50;;;19.90;77.81
8366;BME280;4220;42.502;24.188;2023-07-30T01:38:44;95110.03;;;19.81;78.53
8366;BME280;4220;42.502;24.188;2023-07-30T01:41:11;95048.59;;;19.49;78.33
8366;BME280;4220;42.502;24.188;2023-07-30T01:43:38;95097.84;;;19.94;78.35
8366;BME280;4220;42.502;24.188;2023-07-30T01:46:05;95115.25;;;20.11;78.04
8366;BME280;4220;42.502;24.188;2023-07-30T01:48:32;95110.88;;;20.15;77.54
8366;BME280;4220;42.502;24.188;2023-07-30T01:50:58;95095.88;;;20.09;77.29
8366;BME280;4220;42.502;24.188;2023-07-30T01:53:25;95092.41;;;20.04;77.15
8366;BME280;4220;42.502;24.188;2023-07-30T01:55:53;95096.22;;;19.93;78.72
8366;BME280;4220;42.502;24.188;2023-07-30T01:58:20;95102.41;;;19.98;78.78
8366;BME280;4220;42.502;24.188;2023-07-30T02:00:47;95088.44;;;19.91;78.49
8366;BME280;4220;42.502;24.188;2023-07-30T02:03:14;95100.16;;;19.67;79.82
8366;BME280;4220;42.502;24.188;2023-07-30T02:05:41;95101.00;;;19.62;80.08
8366;BME280;4220;42.502;24.188;2023-07-30T02:08:08;95090.31;;;19.47;80.02
8366;BME280;4220;42.502;24.188;2023-07-30T02:10:35;95011.03;;;18.65;80.91
8366;BME280;4220;42.502;24.188;2023-07-30T02:13:03;95111.31;;;19.35;81.23
8366;BME280;4220;42.502;24.188;2023-07-30T02:15:30;95115.34;;;19.47;80.51
8366;BME280;4220;42.502;24.188;2023-07-30T02:17:57;95101.56;;;19.54;79.79
8366;BME280;4220;42.502;24.188;2023-07-30T02:20:24;95113.38;;;19.63;79.48
8366;BME280;4220;42.502;24.188;2023-07-30T02:22:50;95110.47;;;19.49;79.33
8366;BME280;4220;42.502;24.188;2023-07-30T02:25:17;95102.13;;;19.51;79.29
8366;BME280;4220;42.502;24.188;2023-07-30T02:27:44;95104.75;;;19.66;79.71
8366;BME280;4220;42.502;24.188;2023-07-30T02:30:12;95104.19;;;19.69;80.01
8366;BME280;4220;42.502;24.188;2023-07-30T02:32:41;95107.41;;;19.71;79.82
8366;BME280;4220;42.502;24.188;2023-07-30T02:35:08;95114.16;;;19.64;80.25
8366;BME280;4220;42.502;24.188;2023-07-30T02:37:35;95115.00;;;19.59;80.51
8366;BME280;4220;42.502;24.188;2023-07-30T02:40:02;95108.31;;;19.51;80.33
8366;BME280;4220;42.502;24.188;2023-07-30T02:42:30;95085.50;;;19.29;80.67
8366;BME280;4220;42.502;24.188;2023-07-30T02:44:57;95100.66;;;19.10;82.58
8366;BME280;4220;42.502;24.188;2023-07-30T02:47:25;95130.19;;;19.25;82.53
8366;BME280;4220;42.502;24.188;2023-07-30T02:49:52;95123.00;;;18.95;83.80
8366;BME280;4220;42.502;24.188;2023-07-30T02:52:18;95092.41;;;18.81;83.92
8366;BME280;4220;42.502;24.188;2023-07-30T02:54:45;95125.94;;;19.09;83.52
8366;BME280;4220;42.502;24.188;2023-07-30T02:57:12;95124.28;;;19.18;83.08
8366;BME280;4220;42.502;24.188;2023-07-30T02:59:39;95140.66;;;19.26;82.24
8366;BME280;4220;42.502;24.188;2023-07-30T03:02:06;95126.72;;;19.09;82.80
8366;BME280;4220;42.502;24.188;2023-07-30T03:04:34;95146.06;;;19.21;82.88
8366;BME280;4220;42.502;24.188;2023-07-30T03:07:01;95146.88;;;19.12;82.89
8366;BME280;4220;42.502;24.188;2023-07-30T03:09:28;95142.84;;;19.09;82.42
8366;BME280;4220;42.502;24.188;2023-07-30T03:11:55;95139.63;;;19.07;82.78
8366;BME280;4220;42.502;24.188;2023-07-30T03:14:22;95139.44;;;18.78;83.35
8366;BME280;4220;42.502;24.188;2023-07-30T03:16:49;95137.25;;;18.85;84.02
8366;BME280;4220;42.502;24.188;2023-07-30T03:19:16;95140.75;;;18.86;84.58
8366;BME280;4220;42.502;24.188;2023-07-30T03:21:44;95142.13;;;18.63;85.26
8366;BME280;4220;42.502;24.188;2023-07-30T03:24:11;95132.97;;;18.39;87.17
8366;BME280;4220;42.502;24.188;2023-07-30T03:26:38;95138.09;;;18.25;88.71
8366;BME280;4220;42.502;24.188;2023-07-30T03:29:05;95138.63;;;18.38;88.87
8366;BME280;4220;42.502;24.188;2023-07-30T03:31:32;95141.06;;;18.59;87.79
8366;BME280;4220;42.502;24.188;2023-07-30T03:33:59;95132.19;;;18.74;86.69
8366;BME280;4220;42.502;24.188;2023-07-30T03:36:26;95134.03;;;18.83;85.92
8366;BME280;4220;42.502;24.188;2023-07-30T03:38:54;95144.78;;;18.93;85.61
8366;BME280;4220;42.502;24.188;2023-07-30T03:41:21;95138.38;;;18.79;85.72
8366;BME280;4220;42.502;24.188;2023-07-30T03:43:48;95149.34;;;18.93;85.12
8366;BME280;4220;42.502;24.188;2023-07-30T03:46:15;95126.50;;;18.85;84.89
8366;BME280;4220;42.502;24.188;2023-07-30T03:48:42;95153.88;;;19.08;84.39
8366;BME280;4220;42.502;24.188;2023-07-30T03:51:09;95144.75;;;19.14;83.39
8366;BME280;4220;42.502;24.188;2023-07-30T03:53:36;95153.88;;;19.18;83.21
8366;BME280;4220;42.502;24.188;2023-07-30T03:56:04;95157.88;;;19.25;82.56
8366;BME280;4220;42.502;24.188;2023-07-30T03:58:31;95151.13;;;19.33;81.95
8366;BME280;4220;42.502;24.188;2023-07-30T04:00:58;95165.38;;;19.43;81.41
8366;BME280;4220;42.502;24.188;2023-07-30T04:03:25;95163.72;;;19.52;80.91
8366;BME280;4220;42.502;24.188;2023-07-30T04:05:51;95158.63;;;19.46;81.18
8366;BME280;4220;42.502;24.188;2023-07-30T04:08:18;95150.03;;;19.34;81.30
8366;BME280;4220;42.502;24.188;2023-07-30T04:10:46;95151.47;;;19.16;82.44
8366;BME280;4220;42.502;24.188;2023-07-30T04:13:14;95148.47;;;19.23;81.80
8366;BME280;4220;42.502;24.188;2023-07-30T04:15:41;95161.91;;;19.38;81.65
8366;BME280;4220;42.502;24.188;2023-07-30T04:18:08;95163.22;;;19.35;82.02
8366;BME280;4220;42.502;24.188;2023-07-30T04:20:34;95157.84;;;19.35;81.80
8366;BME280;4220;42.502;24.188;2023-07-30T04:23:01;95154.38;;;19.40;81.35
8366;BME280;4220;42.502;24.188;2023-07-30T04:25:28;95161.09;;;19.37;81.37
8366;BME280;4220;42.502;24.188;2023-07-30T04:27:55;95162.41;;;19.35;81.49
8366;BME280;4220;42.502;24.188;2023-07-30T04:30:23;95167.28;;;19.38;81.30
8366;BME280;4220;42.502;24.188;2023-07-30T04:32:50;95162.63;;;19.58;80.04
8366;BME280;4220;42.502;24.188;2023-07-30T04:35:17;95168.19;;;19.77;78.98
8366;BME280;4220;42.502;24.188;2023-07-30T04:37:44;95166.00;;;19.84;78.30
8366;BME280;4220;42.502;24.188;2023-07-30T04:40:11;95163.78;;;19.96;77.88
8366;BME280;4220;42.502;24.188;2023-07-30T04:42:38;95174.72;;;20.10;77.64
8366;BME280;4220;42.502;24.188;2023-07-30T04:45:05;95172.34;;;20.08;77.86
8366;BME280;4220;42.502;24.188;2023-07-30T04:47:34;95173.06;;;20.29;77.46
8366;BME280;4220;42.502;24.188;2023-07-30T04:50:01;95175.34;;;20.46;76.54
8366;BME280;4220;42.502;24.188;2023-07-30T04:52:28;95170.94;;;20.60;75.88
8366;BME280;4220;42.502;24.188;2023-07-30T04:54:54;95174.03;;;20.77;75.02
8366;BME280;4220;42.502;24.188;2023-07-30T04:57:21;95176.66;;;20.82;73.99
8366;BME280;4220;42.502;24.188;2023-07-30T04:59:49;95175.81;;;20.86;73.05
8366;BME280;4220;42.502;24.188;2023-07-30T05:02:16;95177.16;;;20.89;73.16
8366;BME280;4220;42.502;24.188;2023-07-30T05:04:44;95178.13;;;21.03;72.91
8366;BME280;4220;42.502;24.188;2023-07-30T05:07:10;95181.25;;;21.15;72.44
8366;BME280;4220;42.502;24.188;2023-07-30T05:09:37;95158.63;;;21.11;72.29
8366;BME280;4220;42.502;24.188;2023-07-30T05:12:04;95187.19;;;21.41;71.86
8366;BME280;4220;42.502;24.188;2023-07-30T05:14:31;95184.38;;;21.51;71.34
8366;BME280;4220;42.502;24.188;2023-07-30T05:16:58;95164.16;;;21.48;71.01
8366;BME280;4220;42.502;24.188;2023-07-30T05:19:25;95179.38;;;21.63;70.34
8366;BME280;4220;42.502;24.188;2023-07-30T05:21:53;95182.47;;;21.75;69.96
8366;BME280;4220;42.502;24.188;2023-07-30T05:24:20;95173.03;;;21.73;69.48
8366;BME280;4220;42.502;24.188;2023-07-30T05:26:47;95183.41;;;21.89;69.56
8366;BME280;4220;42.502;24.188;2023-07-30T05:29:14;95174.09;;;22.00;68.68
8366;BME280;4220;42.502;24.188;2023-07-30T05:31:41;95175.69;;;22.20;68.24
8366;BME280;4220;42.502;24.188;2023-07-30T05:34:08;95177.16;;;22.31;67.38
8366;BME280;4220;42.502;24.188;2023-07-30T05:36:34;95173.22;;;22.42;67.20
8366;BME280;4220;42.502;24.188;2023-07-30T05:39:03;95176.50;;;22.58;66.52
8366;BME280;4220;42.502;24.188;2023-07-30T05:41:30;95176.56;;;22.71;65.89
8366;BME280;4220;42.502;24.188;2023-07-30T05:43:56;95180.13;;;22.86;65.51
8366;BME280;4220;42.502;24.188;2023-07-30T05:46:23;95175.03;;;22.98;64.71
8366;BME280;4220;42.502;24.188;2023-07-30T05:48:50;95175.09;;;23.11;63.62
8366;BME280;4220;42.502;24.188;2023-07-30T05:51:17;95171.09;;;23.22;63.24
8366;BME280;4220;42.502;24.188;2023-07-30T05:53:44;95178.38;;;23.40;62.45
8366;BME280;4220;42.502;24.188;2023-07-30T05:56:12;95179.00;;;23.51;61.30
8366;BME280;4220;42.502;24.188;2023-07-30T05:58:39;95178.91;;;23.56;61.21
8366;BME280;4220;42.502;24.188;2023-07-30T06:01:06;95182.28;;;23.62;60.29
8366;BME280;4220;42.502;24.188;2023-07-30T06:03:33;95180.41;;;23.76;59.57
8366;BME280;4220;42.502;24.188;2023-07-30T06:06:01;95169.84;;;23.88;58.37
8366;BME280;4220;42.502;24.188;2023-07-30T06:08:27;95172.44;;;24.06;57.60
8366;BME280;4220;42.502;24.188;2023-07-30T06:10:55;95082.41;;;23.60;57.13
8366;BME280;4220;42.502;24.188;2023-07-30T06:13:23;95175.53;;;24.27;56.07
8366;BME280;4220;42.502;24.188;2023-07-30T06:15:50;95175.84;;;24.26;55.76
8366;BME280;4220;42.502;24.188;2023-07-30T06:18:17;95180.97;;;24.27;54.83
8366;BME280;4220;42.502;24.188;2023-07-30T06:20:43;95173.22;;;24.21;55.22
8366;BME280;4220;42.502;24.188;2023-07-30T06:23:10;95177.63;;;24.30;55.46
8366;BME280;4220;42.502;24.188;2023-07-30T06:25:37;95173.22;;;24.34;55.70
8366;BME280;4220;42.502;24.188;2023-07-30T06:28:04;95174.28;;;24.47;55.60
8366;BME280;4220;42.502;24.188;2023-07-30T06:30:33;95171.56;;;24.47;55.23
8366;BME280;4220;42.502;24.188;2023-07-30T06:33:02;95168.88;;;24.47;55.25
8366;BME280;4220;42.502;24.188;2023-07-30T06:35:29;95131.97;;;24.24;55.32
8366;BME280;4220;42.502;24.188;2023-07-30T06:37:55;95167.25;;;24.68;54.26
8366;BME280;4220;42.502;24.188;2023-07-30T06:40:22;95165.63;;;24.81;54.25
8366;BME280;4220;42.502;24.188;2023-07-30T06:42:49;95160.09;;;24.86;53.27
8366;BME280;4220;42.502;24.188;2023-07-30T06:45:16;95163.47;;;24.91;53.66
8366;BME280;4220;42.502;24.188;2023-07-30T06:47:44;95159.22;;;24.99;53.45
8366;BME280;4220;42.502;24.188;2023-07-30T06:50:11;95146.31;;;25.04;51.78
8366;BME280;4220;42.502;24.188;2023-07-30T06:52:38;95147.28;;;25.30;50.93
8366;BME280;4220;42.502;24.188;2023-07-30T06:55:05;95130.84;;;25.36;49.80
8366;BME280;4220;42.502;24.188;2023-07-30T06:57:32;95161.66;;;25.62;48.70
8366;BME280;4220;42.502;24.188;2023-07-30T06:59:59;95148.53;;;25.64;48.93
8366;BME280;4220;42.502;24.188;2023-07-30T07:02:26;95149.97;;;25.61;48.89
8366;BME280;4220;42.502;24.188;2023-07-30T07:04:54;95160.91;;;25.78;48.41
8366;BME280;4220;42.502;24.188;2023-07-30T07:07:21;95158.69;;;25.89;48.05
8366;BME280;4220;42.502;24.188;2023-07-30T07:09:48;95156.66;;;26.03;46.96
8366;BME280;4220;42.502;24.188;2023-07-30T07:12:15;95152.03;;;26.12;47.20
8366;BME280;4220;42.502;24.188;2023-07-30T07:14:42;95158.88;;;26.10;47.07
8366;BME280;4220;42.502;24.188;2023-07-30T07:17:08;95146.16;;;26.19;47.53
8366;BME280;4220;42.502;24.188;2023-07-30T07:19:35;95143.28;;;26.32;46.16
8366;BME280;4220;42.502;24.188;2023-07-30T07:22:04;95147.78;;;26.45;45.57
8366;BME280;4220;42.502;24.188;2023-07-30T07:24:31;95149.03;;;26.56;45.08
8366;BME280;4220;42.502;24.188;2023-07-30T07:26:58;95143.59;;;26.56;45.62
8366;BME280;4220;42.502;24.188;2023-07-30T07:29:25;95143.16;;;26.63;45.92
8366;BME280;4220;42.502;24.188;2023-07-30T07:31:52;95130.66;;;26.79;45.84
8366;BME280;4220;42.502;24.188;2023-07-30T07:34:19;95132.41;;;26.92;45.28
8366;BME280;4220;42.502;24.188;2023-07-30T07:36:47;95137.03;;;27.09;45.90
8366;BME280;4220;42.502;24.188;2023-07-30T07:39:15;95136.84;;;27.14;45.01
8366;BME280;4220;42.502;24.188;2023-07-30T07:41:43;95132.50;;;27.21;45.22
8366;BME280;4220;42.502;24.188;2023-07-30T07:44:10;95117.31;;;27.12;44.87
8366;BME280;4220;42.502;24.188;2023-07-30T07:46:37;95132.22;;;27.14;44.92
8366;BME280;4220;42.502;24.188;2023-07-30T07:49:03;95115.72;;;27.11;45.17
8366;BME280;4220;42.502;24.188;2023-07-30T07:51:30;95120.16;;;27.24;44.87
8366;BME280;4220;42.502;24.188;2023-07-30T07:53:57;95096.63;;;27.19;44.37
8366;BME280;4220;42.502;24.188;2023-07-30T07:56:25;95106.97;;;27.43;43.86
8366;BME280;4220;42.502;24.188;2023-07-30T07:58:52;95120.34;;;27.65;43.68
8366;BME280;4220;42.502;24.188;2023-07-30T08:01:19;95077.91;;;27.56;43.19
8366;BME280;4220;42.502;24.188;2023-07-30T08:03:46;95108.31;;;27.96;42.92
8366;BME280;4220;42.502;24.188;2023-07-30T08:06:13;95110.38;;;27.99;43.08
8366;BME280;4220;42.502;24.188;2023-07-30T08:08:40;95099.38;;;27.86;42.88
8366;BME280;4220;42.502;24.188;2023-07-30T08:11:07;95104.69;;;27.83;42.61
8366;BME280;4220;42.502;24.188;2023-07-30T08:13:36;95108.22;;;27.83;42.25
8366;BME280;4220;42.502;24.188;2023-07-30T08:16:03;95102.81;;;27.75;43.25
8366;BME280;4220;42.502;24.188;2023-07-30T08:18:30;95096.19;;;27.84;43.45
8366;BME280;4220;42.502;24.188;2023-07-30T08:20:56;95014.81;;;27.45;43.39
8366;BME280;4220;42.502;24.188;2023-07-30T08:23:23;95101.56;;;28.02;42.65
8366;BME280;4220;42.502;24.188;2023-07-30T08:25:50;95100.59;;;27.98;42.23
8366;BME280;4220;42.502;24.188;2023-07-30T08:28:17;95098.19;;;28.05;42.62
8366;BME280;4220;42.502;24.188;2023-07-30T08:30:45;95097.06;;;28.26;42.86
8366;BME280;4220;42.502;24.188;2023-07-30T08:33:12;95087.22;;;28.34;42.23
8366;BME280;4220;42.502;24.188;2023-07-30T08:35:39;95088.41;;;28.45;41.91
8366;BME280;4220;42.502;24.188;2023-07-30T08:38:06;95077.38;;;28.41;40.60
8366;BME280;4220;42.502;24.188;2023-07-30T08:40:33;95076.97;;;28.51;40.34
8366;BME280;4220;42.502;24.188;2023-07-30T08:43:02;95069.88;;;28.50;40.50
8366;BME280;4220;42.502;24.188;2023-07-30T08:45:29;95078.44;;;28.49;40.63
8366;BME280;4220;42.502;24.188;2023-07-30T08:47:57;95071.28;;;28.57;40.72
8366;BME280;4220;42.502;24.188;2023-07-30T08:50:25;95075.44;;;28.63;40.09
8366;BME280;4220;42.502;24.188;2023-07-30T08:52:54;95064.69;;;28.78;38.78
8366;BME280;4220;42.502;24.188;2023-07-30T08:55:22;95067.38;;;28.99;36.98
8366;BME280;4220;42.502;24.188;2023-07-30T08:57:50;95070.03;;;29.20;37.33
8366;BME280;4220;42.502;24.188;2023-07-30T09:00:19;95057.38;;;29.15;35.99
8366;BME280;4220;42.502;24.188;2023-07-30T09:02:49;95059.44;;;29.18;36.13
8366;BME280;4220;42.502;24.188;2023-07-30T09:05:19;95057.19;;;29.32;36.25
8366;BME280;4220;42.502;24.188;2023-07-30T09:07:46;95055.94;;;29.42;36.18
8366;BME280;4220;42.502;24.188;2023-07-30T09:10:14;95055.50;;;29.52;36.13
8366;BME280;4220;42.502;24.188;2023-07-30T09:12:41;95050.97;;;29.56;35.98
8366;BME280;4220;42.502;24.188;2023-07-30T09:15:08;95053.56;;;29.64;36.11
8366;BME280;4220;42.502;24.188;2023-07-30T09:17:35;95053.25;;;29.90;35.86
8366;BME280;4220;42.502;24.188;2023-07-30T09:20:03;95047.03;;;30.05;35.14
8366;BME280;4220;42.502;24.188;2023-07-30T09:22:33;95050.06;;;30.28;34.42
8366;BME280;4220;42.502;24.188;2023-07-30T09:25:05;95046.91;;;30.14;34.42
8366;BME280;4220;42.502;24.188;2023-07-30T09:27:32;95046.19;;;29.77;34.32
8366;BME280;4220;42.502;24.188;2023-07-30T09:30:00;95035.91;;;29.86;34.72
8366;BME280;4220;42.502;24.188;2023-07-30T09:32:29;95008.56;;;29.74;34.78
8366;BME280;4220;42.502;24.188;2023-07-30T09:35:03;95027.94;;;29.93;34.95
8366;BME280;4220;42.502;24.188;2023-07-30T09:37:33;95021.34;;;29.82;35.34
8366;BME280;4220;42.502;24.188;2023-07-30T09:40:03;95038.88;;;29.93;35.08
8366;BME280;4220;42.502;24.188;2023-07-30T09:42:30;95028.41;;;29.95;34.82
8366;BME280;4220;42.502;24.188;2023-07-30T09:44:59;95019.66;;;30.17;34.65
8366;BME280;4220;42.502;24.188;2023-07-30T09:47:26;95023.25;;;30.33;34.44
8366;BME280;4220;42.502;24.188;2023-07-30T09:49:53;95018.84;;;30.57;33.88
8366;BME280;4220;42.502;24.188;2023-07-30T09:52:21;95019.22;;;30.98;33.18
8366;BME280;4220;42.502;24.188;2023-07-30T09:54:51;95007.41;;;31.26;32.77
8366;BME280;4220;42.502;24.188;2023-07-30T09:57:18;95017.59;;;31.56;32.40
8366;BME280;4220;42.502;24.188;2023-07-30T09:59:45;95003.28;;;31.82;31.61
8366;BME280;4220;42.502;24.188;2023-07-30T10:02:12;95012.69;;;32.16;30.74
8366;BME280;4220;42.502;24.188;2023-07-30T10:04:43;95010.19;;;32.46;29.95
8366;BME280;4220;42.502;24.188;2023-07-30T10:07:14;94998.09;;;32.69;29.71
8366;BME280;4220;42.502;24.188;2023-07-30T10:09:44;94984.13;;;32.78;29.02
8366;BME280;4220;42.502;24.188;2023-07-30T10:12:16;94990.81;;;33.00;29.59
8366;BME280;4220;42.502;24.188;2023-07-30T10:14:44;94988.38;;;33.40;29.56
8366;BME280;4220;42.502;24.188;2023-07-30T10:17:16;94992.97;;;33.81;28.80
8366;BME280;4220;42.502;24.188;2023-07-30T10:19:46;94981.47;;;34.02;28.62
8366;BME280;4220;42.502;24.188;2023-07-30T10:22:22;94979.81;;;34.24;27.70
8366;BME280;4220;42.502;24.188;2023-07-30T10:24:57;94981.78;;;34.23;27.47
8366;BME280;4220;42.502;24.188;2023-07-30T10:27:35;94981.44;;;34.28;27.19
8366;BME280;4220;42.502;24.188;2023-07-30T10:30:09;94977.41;;;34.18;27.44
8366;BME280;4220;42.502;24.188;2023-07-30T10:32:38;94978.34;;;34.03;27.27
8366;BME280;4220;42.502;24.188;2023-07-30T10:35:06;94977.72;;;34.13;27.48
8366;BME280;4220;42.502;24.188;2023-07-30T10:37:33;94977.56;;;34.03;27.88
8366;BME280;4220;42.502;24.188;2023-07-30T10:39:59;94966.34;;;33.89;28.00
8366;BME280;4220;42.502;24.188;2023-07-30T10:42:34;94966.56;;;33.50;28.00
8366;BME280;4220;42.502;24.188;2023-07-30T10:45:01;94964.19;;;33.49;28.29
8366;BME280;4220;42.502;24.188;2023-07-30T10:47:28;94954.59;;;33.39;28.45
8366;BME280;4220;42.502;24.188;2023-07-30T10:50:00;94952.84;;;33.28;28.61
8366;BME280;4220;42.502;24.188;2023-07-30T10:52:28;94936.22;;;33.21;28.96
8366;BME280;4220;42.502;24.188;2023-07-30T10:54:59;94941.69;;;33.43;28.77
8366;BME280;4220;42.502;24.188;2023-07-30T10:57:30;94950.19;;;33.58;28.12
8366;BME280;4220;42.502;24.188;2023-07-30T10:59:59;94948.25;;;33.35;29.02
8366;BME280;4220;42.502;24.188;2023-07-30T11:02:27;94934.78;;;33.04;28.74
8366;BME280;4220;42.502;24.188;2023-07-30T11:04:55;94939.75;;;32.99;29.01
8366;BME280;4220;42.502;24.188;2023-07-30T11:07:21;94921.22;;;32.50;29.47
8366;BME280;4220;42.502;24.188;2023-07-30T11:09:58;94948.50;;;32.20;30.02
8366;BME280;4220;42.502;24.188;2023-07-30T11:12:26;94926.56;;;31.86;30.90
8366;BME280;4220;42.502;24.188;2023-07-30T11:15:01;94925.78;;;32.04;30.52
8366;BME280;4220;42.502;24.188;2023-07-30T11:17:28;94885.66;;;32.15;30.06
8366;BME280;4220;42.502;24.188;2023-07-30T11:19:55;94915.84;;;32.99;29.76
8366;BME280;4220;42.502;24.188;2023-07-30T11:22:32;94916.78;;;33.85;28.47
8366;BME280;4220;42.502;24.188;2023-07-30T11:24:59;94918.25;;;34.72;27.64
8366;BME280;4220;42.502;24.188;2023-07-30T11:27:44;94886.22;;;34.60;26.38
8366;BME280;4220;42.502;24.188;2023-07-30T11:30:13;94916.81;;;34.18;27.59
8366;BME280;4220;42.502;24.188;2023-07-30T11:32:41;94893.16;;;33.81;27.49
8366;BME280;4220;42.502;24.188;2023-07-30T11:35:08;94904.63;;;34.53;26.95
8366;BME280;4220;42.502;24.188;2023-07-30T11:37:35;94905.06;;;34.95;26.64
8366;BME280;4220;42.502;24.188;2023-07-30T11:40:07;94898.47;;;35.07;26.15
8366;BME280;4220;42.502;24.188;2023-07-30T11:42:34;94898.72;;;35.38;25.32
8366;BME280;4220;42.502;24.188;2023-07-30T11:45:20;94897.72;;;35.06;25.56
8366;BME280;4220;42.502;24.188;2023-07-30T11:47:48;94880.13;;;34.81;25.60
8366;BME280;4220;42.502;24.188;2023-07-30T11:50:15;94888.31;;;35.14;25.21
8366;BME280;4220;42.502;24.188;2023-07-30T11:52:52;94876.13;;;34.71;25.57
8366;BME280;4220;42.502;24.188;2023-07-30T11:55:20;94882.16;;;34.10;26.32
8366;BME280;4220;42.502;24.188;2023-07-30T11:57:47;94854.53;;;33.47;26.66
8366;BME280;4220;42.502;24.188;2023-07-30T12:00:14;94867.50;;;33.21;27.57
8366;BME280;4220;42.502;24.188;2023-07-30T12:02:42;94866.50;;;32.83;27.89
8366;BME280;4220;42.502;24.188;2023-07-30T12:05:10;94859.97;;;32.69;28.23
8366;BME280;4220;42.502;24.188;2023-07-30T12:07:40;94870.06;;;33.07;27.60
8366;BME280;4220;42.502;24.188;2023-07-30T12:10:08;94860.09;;;33.51;27.19
8366;BME280;4220;42.502;24.188;2023-07-30T12:12:35;94848.00;;;34.18;25.97
8366;BME280;4220;42.502;24.188;2023-07-30T12:15:10;94855.78;;;34.87;25.16
8366;BME280;4220;42.502;24.188;2023-07-30T12:17:37;94847.66;;;34.57;24.90
8366;BME280;4220;42.502;24.188;2023-07-30T12:20:06;94838.50;;;34.93;25.08
8366;BME280;4220;42.502;24.188;2023-07-30T12:22:33;94850.59;;;35.25;25.10
8366;BME280;4220;42.502;24.188;2023-07-30T12:25:01;94843.34;;;35.03;24.32
8366;BME280;4220;42.502;24.188;2023-07-30T12:27:29;94828.16;;;35.34;24.47
8366;BME280;4220;42.502;24.188;2023-07-30T12:29:56;94837.16;;;35.89;24.03
8366;BME280;4220;42.502;24.188;2023-07-30T12:32:23;94812.06;;;36.40;23.44
8366;BME280;4220;42.502;24.188;2023-07-30T12:34:50;94842.16;;;37.19;22.64
8366;BME280;4220;42.502;24.188;2023-07-30T12:37:18;94833.38;;;37.73;22.36
8366;BME280;4220;42.502;24.188;2023-07-30T12:39:45;94824.75;;;36.65;22.66
8366;BME280;4220;42.502;24.188;2023-07-30T12:42:11;94826.91;;;35.93;23.63
8366;BME280;4220;42.502;24.188;2023-07-30T12:44:38;94812.69;;;35.91;23.73
8366;BME280;4220;42.502;24.188;2023-07-30T12:47:05;94816.63;;;35.86;24.00
8366;BME280;4220;42.502;24.188;2023-07-30T12:49:32;94812.44;;;35.38;24.54
8366;BME280;4220;42.502;24.188;2023-07-30T12:51:59;94790.78;;;34.82;24.28
8366;BME280;4220;42.502;24.188;2023-07-30T12:54:27;94811.59;;;34.76;24.50
8366;BME280;4220;42.502;24.188;2023-07-30T12:56:54;94790.25;;;34.26;25.32
8366;BME280;4220;42.502;24.188;2023-07-30T12:59:21;94799.78;;;33.98;25.91
8366;BME280;4220;42.502;24.188;2023-07-30T13:01:47;94799.03;;;34.01;26.16
8366;BME280;4220;42.502;24.188;2023-07-30T13:04:14;94771.75;;;33.86;26.40
8366;BME280;4220;42.502;24.188;2023-07-30T13:06:42;94755.53;;;34.10;26.62
8366;BME280;4220;42.502;24.188;2023-07-30T13:09:09;94792.72;;;34.78;25.70
8366;BME280;4220;42.502;24.188;2023-07-30T13:11:37;94794.31;;;34.79;25.61